sensor_id;sensor_type;location;lat;lon;timestamp;temperature;humidity
6307;DHT22;3186;54.062;9.962;2023-03-22T00:01:14;9.70;99.90
6307;DHT22;3186;54.062;9.962;2023-03-22T00:03:40;9.70;99.90
6307;DHT22;3186;54.062;9.962;2023-03-22T00:06:06;9.70;99.90
6307;DHT22;3186;54.062;9.962;2023-03-22T00:08:33;9.70;99.90
6307;DHT22;3186;54.062;9.962;2023-03-22T00:10:59;9.70;99.90
6307;DHT22;3186;54.062;9.962;2023-03-22T00:13:25;9.60;99.90
6307;DHT22;3186;54.062;9.962;2023-03-22T00:15:50;9.60;99.90
6307;DHT22;3186;54.062;9.962;2023-03-22T00:18:17;9.60;99.90
6307;DHT22;3186;54.062;9.962;2023-03-22T00:20:48;9.60;99.90
6307;DHT22;3186;54.062;9.962;2023-03-22T00:23:14;9.60;99.90
6307;DHT22;3186;54.062;9.962;2023-03-22T00:25:41;9.50;99.90
6307;DHT22;3186;54.062;9.962;2023-03-22T00:28:07;9.50;99.90
6307;DHT22;3186;54.062;9.962;2023-03-22T00:30:32;9.40;99.90
6307;DHT22;3186;54.062;9.962;2023-03-22T00:32:58;9.50;99.90
6307;DHT22;3186;54.062;9.962;2023-03-22T00:35:24;9.40;99.90
6307;DHT22;3186;54.062;9.962;2023-03-22T00:37:50;9.40;99.90
6307;DHT22;3186;54.062;9.962;2023-03-22T00:40:16;9.20;99.90
6307;DHT22;3186;54.062;9.962;2023-03-22T00:42:42;9.20;99.90
6307;DHT22;3186;54.062;9.962;2023-03-22T00:45:10;9.30;99.90
6307;DHT22;3186;54.062;9.962;2023-03-22T00:47:37;9.20;99.90
6307;DHT22;3186;54.062;9.962;2023-03-22T00:50:04;9.30;99.90
6307;DHT22;3186;54.062;9.962;2023-03-22T00:52:31;9.30;99.90
6307;DHT22;3186;54.062;9.962;2023-03-22T00:54:58;9.30;99.90
6307;DHT22;3186;54.062;9.962;2023-03-22T00:57:24;9.20;99.90
6307;DHT22;3186;54.062;9.962;2023-03-22T00:59:50;9.20;99.90
6307;DHT22;3186;54.062;9.962;2023-03-22T01:02:18;9.20;99.90
6307;DHT22;3186;54.062;9.962;2023-03-22T01:04:44;9.20;99.90
6307;DHT22;3186;54.062;9.962;2023-03-22T01:07:17;9.10;99.90
6307;DHT22;3186;54.062;9.962;2023-03-22T01:09:47;9.10;99.90
6307;DHT22;3186;54.062;9.962;2023-03-22T01:12:14;9.10;99.90
6307;DHT22;3186;54.062;9.962;2023-03-22T01:14:41;9.10;99.90
6307;DHT22;3186;54.062;9.962;2023-03-22T01:17:06;9.00;99.90
6307;DHT22;3186;54.062;9.962;2023-03-22T01:19:33;9.00;99.90
6307;DHT22;3186;54.062;9.962;2023-03-22T01:22:00;8.90;99.90
6307;DHT22;3186;54.062;9.962;2023-03-22T01:24:26;8.90;99.90
6307;DHT22;3186;54.062;9.962;2023-03-22T01:26:52;8.90;99.90
6307;DHT22;3186;54.062;9.962;2023-03-22T01:29:18;8.90;99.90
6307;DHT22;3186;54.062;9.962;2023-03-22T01:31:43;8.90;99.90
6307;DHT22;3186;54.062;9.962;2023-03-22T01:34:11;9.00;99.90
6307;DHT22;3186;54.062;9.962;2023-03-22T01:36:37;9.00;99.90
6307;DHT22;3186;54.062;9.962;2023-03-22T01:39:03;8.80;99.90
6307;DHT22;3186;54.062;9.962;2023-03-22T01:41:31;8.90;99.90
6307;DHT22;3186;54.062;9.962;2023-03-22T01:46:42;8.80;99.90
6307;DHT22;3186;54.062;9.962;2023-03-22T01:49:25;8.80;99.90
6307;DHT22;3186;54.062;9.962;2023-03-22T01:51:55;8.80;99.90
6307;DHT22;3186;54.062;9.962;2023-03-22T01:54:50;8.70;99.90
6307;DHT22;3186;54.062;9.962;2023-03-22T01:57:41;8.80;99.90
6307;DHT22;3186;54.062;9.962;2023-03-22T02:00:13;8.80;99.90
6307;DHT22;3186;54.062;9.962;2023-03-22T02:03:00;8.80;99.90
6307;DHT22;3186;54.062;9.962;2023-03-22T02:05:34;8.80;99.90
6307;DHT22;3186;54.062;9.962;2023-03-22T02:08:01;8.80;99.90
6307;DHT22;3186;54.062;9.962;2023-03-22T02:10:37;8.80;99.90
6307;DHT22;3186;54.062;9.962;2023-03-22T02:13:27;8.80;99.90
6307;DHT22;3186;54.062;9.962;2023-03-22T02:19:26;8.70;99.90
6307;DHT22;3186;54.062;9.962;2023-03-22T02:27:59;8.70;99.90
6307;DHT22;3186;54.062;9.962;2023-03-22T02:39:15;8.80;99.90
6307;DHT22;3186;54.062;9.962;2023-03-22T02:47:41;8.80;99.90
6307;DHT22;3186;54.062;9.962;2023-03-22T02:50:30;8.80;99.90
6307;DHT22;3186;54.062;9.962;2023-03-22T02:55:59;8.80;99.90
6307;DHT22;3186;54.062;9.962;2023-03-22T02:58:29;8.80;99.90
6307;DHT22;3186;54.062;9.962;2023-03-22T03:01:04;8.80;99.90
6307;DHT22;3186;54.062;9.962;2023-03-22T03:03:34;8.80;99.90
6307;DHT22;3186;54.062;9.962;2023-03-22T03:06:10;8.80;99.90
6307;DHT22;3186;54.062;9.962;2023-03-22T03:08:39;8.80;99.90
6307;DHT22;3186;54.062;9.962;2023-03-22T03:11:06;8.80;99.90
6307;DHT22;3186;54.062;9.962;2023-03-22T03:13:32;8.80;99.90
6307;DHT22;3186;54.062;9.962;2023-03-22T03:15:59;8.90;99.90
6307;DHT22;3186;54.062;9.962;2023-03-22T03:29:41;8.90;99.90
6307;DHT22;3186;54.062;9.962;2023-03-22T03:32:20;8.90;99.90
6307;DHT22;3186;54.062;9.962;2023-03-22T03:37:20;9.00;99.90
6307;DHT22;3186;54.062;9.962;2023-03-22T03:40:02;9.20;99.90
6307;DHT22;3186;54.062;9.962;2023-03-22T03:42:30;9.00;99.90
6307;DHT22;3186;54.062;9.962;2023-03-22T03:44:57;9.00;99.90
6307;DHT22;3186;54.062;9.962;2023-03-22T03:47:24;9.00;99.90
6307;DHT22;3186;54.062;9.962;2023-03-22T03:49:50;9.00;99.90
6307;DHT22;3186;54.062;9.962;2023-03-22T03:52:16;9.00;99.90
6307;DHT22;3186;54.062;9.962;2023-03-22T03:54:42;9.00;99.90
6307;DHT22;3186;54.062;9.962;2023-03-22T03:57:13;9.00;99.90
6307;DHT22;3186;54.062;9.962;2023-03-22T03:59:41;9.10;99.90
6307;DHT22;3186;54.062;9.962;2023-03-22T04:02:16;9.00;99.90
6307;DHT22;3186;54.062;9.962;2023-03-22T04:04:42;9.10;99.90
6307;DHT22;3186;54.062;9.962;2023-03-22T04:07:08;9.10;99.90
6307;DHT22;3186;54.062;9.962;2023-03-22T04:09:37;9.10;99.90
6307;DHT22;3186;54.062;9.962;2023-03-22T04:12:24;9.10;99.90
6307;DHT22;3186;54.062;9.962;2023-03-22T04:15:19;9.10;99.90
6307;DHT22;3186;54.062;9.962;2023-03-22T04:17:51;9.20;99.90
6307;DHT22;3186;54.062;9.962;2023-03-22T04:20:18;9.20;99.90
6307;DHT22;3186;54.062;9.962;2023-03-22T04:22:46;9.20;99.90
6307;DHT22;3186;54.062;9.962;2023-03-22T04:25:14;9.10;99.90
6307;DHT22;3186;54.062;9.962;2023-03-22T04:27:55;9.10;99.90
6307;DHT22;3186;54.062;9.962;2023-03-22T04:30:21;9.20;99.90
6307;DHT22;3186;54.062;9.962;2023-03-22T04:32:59;9.20;99.90
6307;DHT22;3186;54.062;9.962;2023-03-22T04:35:42;9.20;99.90
6307;DHT22;3186;54.062;9.962;2023-03-22T04:38:11;9.10;99.90
6307;DHT22;3186;54.062;9.962;2023-03-22T04:40:38;9.20;99.90
6307;DHT22;3186;54.062;9.962;2023-03-22T04:43:18;9.20;99.90
6307;DHT22;3186;54.062;9.962;2023-03-22T04:45:58;9.20;99.90
6307;DHT22;3186;54.062;9.962;2023-03-22T04:48:32;9.10;99.90
6307;DHT22;3186;54.062;9.962;2023-03-22T04:51:00;9.20;99.90
6307;DHT22;3186;54.062;9.962;2023-03-22T04:53:32;9.10;99.90
6307;DHT22;3186;54.062;9.962;2023-03-22T04:56:09;9.10;99.90
6307;DHT22;3186;54.062;9.962;2023-03-22T04:58:38;9.20;99.90
6307;DHT22;3186;54.062;9.962;2023-03-22T05:01:08;9.20;99.90
6307;DHT22;3186;54.062;9.962;2023-03-22T05:03:37;9.20;99.90
6307;DHT22;3186;54.062;9.962;2023-03-22T05:06:06;9.20;99.90
6307;DHT22;3186;54.062;9.962;2023-03-22T05:08:55;9.10;99.90
6307;DHT22;3186;54.062;9.962;2023-03-22T05:11:22;9.10;99.90
6307;DHT22;3186;54.062;9.962;2023-03-22T05:14:03;9.10;99.90
6307;DHT22;3186;54.062;9.962;2023-03-22T05:16:30;9.20;99.90
6307;DHT22;3186;54.062;9.962;2023-03-22T05:18:57;9.10;99.90
6307;DHT22;3186;54.062;9.962;2023-03-22T05:21:24;9.10;99.90
6307;DHT22;3186;54.062;9.962;2023-03-22T05:23:56;9.10;99.90
6307;DHT22;3186;54.062;9.962;2023-03-22T05:26:24;9.10;99.90
6307;DHT22;3186;54.062;9.962;2023-03-22T05:28:54;9.10;99.90
6307;DHT22;3186;54.062;9.962;2023-03-22T05:31:28;9.10;99.90
6307;DHT22;3186;54.062;9.962;2023-03-22T05:34:00;9.20;99.90
6307;DHT22;3186;54.062;9.962;2023-03-22T05:36:28;9.10;99.90
6307;DHT22;3186;54.062;9.962;2023-03-22T05:39:18;9.10;99.90
6307;DHT22;3186;54.062;9.962;2023-03-22T05:41:45;9.10;99.90
6307;DHT22;3186;54.062;9.962;2023-03-22T05:44:11;9.10;99.90
6307;DHT22;3186;54.062;9.962;2023-03-22T05:46:42;9.20;99.90
6307;DHT22;3186;54.062;9.962;2023-03-22T05:49:38;9.10;99.90
6307;DHT22;3186;54.062;9.962;2023-03-22T05:52:04;9.10;99.90
6307;DHT22;3186;54.062;9.962;2023-03-22T05:54:50;9.10;99.90
6307;DHT22;3186;54.062;9.962;2023-03-22T05:57:16;9.10;99.90
6307;DHT22;3186;54.062;9.962;2023-03-22T05:59:43;9.20;99.90
6307;DHT22;3186;54.062;9.962;2023-03-22T06:02:16;9.30;99.90
6307;DHT22;3186;54.062;9.962;2023-03-22T06:04:42;9.20;99.90
6307;DHT22;3186;54.062;9.962;2023-03-22T06:07:11;9.20;99.90
6307;DHT22;3186;54.062;9.962;2023-03-22T06:10:00;9.30;99.90
6307;DHT22;3186;54.062;9.962;2023-03-22T06:12:30;9.20;99.90
6307;DHT22;3186;54.062;9.962;2023-03-22T06:15:09;9.20;99.90
6307;DHT22;3186;54.062;9.962;2023-03-22T06:17:35;9.30;99.90
6307;DHT22;3186;54.062;9.962;2023-03-22T06:20:04;9.30;99.90
6307;DHT22;3186;54.062;9.962;2023-03-22T06:22:38;9.40;99.90
6307;DHT22;3186;54.062;9.962;2023-03-22T06:25:09;9.40;99.90
6307;DHT22;3186;54.062;9.962;2023-03-22T06:27:40;9.30;99.90
6307;DHT22;3186;54.062;9.962;2023-03-22T06:30:06;9.40;99.90
6307;DHT22;3186;54.062;9.962;2023-03-22T06:32:40;9.40;99.90
6307;DHT22;3186;54.062;9.962;2023-03-22T06:35:07;9.40;99.90
6307;DHT22;3186;54.062;9.962;2023-03-22T06:37:33;9.50;99.90
6307;DHT22;3186;54.062;9.962;2023-03-22T06:40:00;9.50;99.90
6307;DHT22;3186;54.062;9.962;2023-03-22T06:42:26;9.50;99.90
6307;DHT22;3186;54.062;9.962;2023-03-22T06:45:04;9.60;99.90
6307;DHT22;3186;54.062;9.962;2023-03-22T06:47:33;9.50;99.90
6307;DHT22;3186;54.062;9.962;2023-03-22T06:49:59;9.50;99.90
6307;DHT22;3186;54.062;9.962;2023-03-22T06:52:37;9.50;99.90
6307;DHT22;3186;54.062;9.962;2023-03-22T06:55:06;9.60;99.90
6307;DHT22;3186;54.062;9.962;2023-03-22T06:57:33;9.70;99.90
6307;DHT22;3186;54.062;9.962;2023-03-22T06:59:58;9.70;99.90
6307;DHT22;3186;54.062;9.962;2023-03-22T07:02:24;9.80;99.90
6307;DHT22;3186;54.062;9.962;2023-03-22T07:05:17;9.80;99.90
6307;DHT22;3186;54.062;9.962;2023-03-22T07:07:43;9.80;99.90
6307;DHT22;3186;54.062;9.962;2023-03-22T07:10:09;9.80;99.90
6307;DHT22;3186;54.062;9.962;2023-03-22T07:12:35;9.80;99.90
6307;DHT22;3186;54.062;9.962;2023-03-22T07:15:07;9.80;99.90
6307;DHT22;3186;54.062;9.962;2023-03-22T07:17:46;9.70;99.90
6307;DHT22;3186;54.062;9.962;2023-03-22T07:20:12;9.80;99.90
6307;DHT22;3186;54.062;9.962;2023-03-22T07:22:40;9.80;99.90
6307;DHT22;3186;54.062;9.962;2023-03-22T07:25:07;9.90;99.90
6307;DHT22;3186;54.062;9.962;2023-03-22T07:27:33;11.10;99.90
6307;DHT22;3186;54.062;9.962;2023-03-22T07:29:59;10.00;99.90
6307;DHT22;3186;54.062;9.962;2023-03-22T07:32:26;9.90;99.90
6307;DHT22;3186;54.062;9.962;2023-03-22T07:35:02;10.10;99.90
6307;DHT22;3186;54.062;9.962;2023-03-22T07:37:28;9.90;99.90
6307;DHT22;3186;54.062;9.962;2023-03-22T07:39:54;10.00;99.90
6307;DHT22;3186;54.062;9.962;2023-03-22T07:42:20;10.00;99.90
6307;DHT22;3186;54.062;9.962;2023-03-22T07:45:18;10.10;99.90
6307;DHT22;3186;54.062;9.962;2023-03-22T07:47:45;10.10;99.90
6307;DHT22;3186;54.062;9.962;2023-03-22T07:50:17;10.20;99.90
6307;DHT22;3186;54.062;9.962;2023-03-22T07:52:45;10.20;99.90
6307;DHT22;3186;54.062;9.962;2023-03-22T07:55:13;10.20;99.90
6307;DHT22;3186;54.062;9.962;2023-03-22T07:57:40;10.20;99.90
6307;DHT22;3186;54.062;9.962;2023-03-22T08:00:08;10.20;99.90
6307;DHT22;3186;54.062;9.962;2023-03-22T08:02:51;10.20;99.90
6307;DHT22;3186;54.062;9.962;2023-03-22T08:05:48;10.20;99.90
6307;DHT22;3186;54.062;9.962;2023-03-22T08:08:17;10.20;99.90
6307;DHT22;3186;54.062;9.962;2023-03-22T08:10:48;10.30;99.90
6307;DHT22;3186;54.062;9.962;2023-03-22T08:13:14;10.30;99.90
6307;DHT22;3186;54.062;9.962;2023-03-22T08:15:40;10.40;99.90
6307;DHT22;3186;54.062;9.962;2023-03-22T08:18:08;10.50;99.90
6307;DHT22;3186;54.062;9.962;2023-03-22T08:20:38;10.50;99.90
6307;DHT22;3186;54.062;9.962;2023-03-22T08:23:08;10.50;99.90
6307;DHT22;3186;54.062;9.962;2023-03-22T08:25:57;10.50;99.90
6307;DHT22;3186;54.062;9.962;2023-03-22T08:28:23;10.60;99.90
6307;DHT22;3186;54.062;9.962;2023-03-22T08:30:49;10.70;99.90
6307;DHT22;3186;54.062;9.962;2023-03-22T08:33:16;10.70;99.90
6307;DHT22;3186;54.062;9.962;2023-03-22T08:35:43;10.90;99.90
6307;DHT22;3186;54.062;9.962;2023-03-22T08:38:10;11.00;99.90
6307;DHT22;3186;54.062;9.962;2023-03-22T08:40:46;10.90;99.90
6307;DHT22;3186;54.062;9.962;2023-03-22T08:43:13;11.00;99.90
6307;DHT22;3186;54.062;9.962;2023-03-22T08:45:39;11.00;99.90
6307;DHT22;3186;54.062;9.962;2023-03-22T08:48:10;11.10;99.90
6307;DHT22;3186;54.062;9.962;2023-03-22T08:50:56;11.20;99.90
6307;DHT22;3186;54.062;9.962;2023-03-22T08:53:29;11.20;99.90
6307;DHT22;3186;54.062;9.962;2023-03-22T08:56:11;11.20;99.90
6307;DHT22;3186;54.062;9.962;2023-03-22T08:58:57;11.20;99.90
6307;DHT22;3186;54.062;9.962;2023-03-22T09:01:56;11.20;99.90
6307;DHT22;3186;54.062;9.962;2023-03-22T09:04:22;11.40;99.90
6307;DHT22;3186;54.062;9.962;2023-03-22T09:06:48;11.40;99.90
6307;DHT22;3186;54.062;9.962;2023-03-22T09:09:14;11.50;99.90
6307;DHT22;3186;54.062;9.962;2023-03-22T09:11:42;11.30;99.90
6307;DHT22;3186;54.062;9.962;2023-03-22T09:14:08;11.40;99.90
6307;DHT22;3186;54.062;9.962;2023-03-22T09:16:35;11.40;99.90
6307;DHT22;3186;54.062;9.962;2023-03-22T09:19:01;12.10;99.90
6307;DHT22;3186;54.062;9.962;2023-03-22T09:21:28;11.50;99.90
6307;DHT22;3186;54.062;9.962;2023-03-22T09:24:11;11.60;99.90
6307;DHT22;3186;54.062;9.962;2023-03-22T09:26:42;11.60;99.90
6307;DHT22;3186;54.062;9.962;2023-03-22T09:29:09;11.80;99.90
6307;DHT22;3186;54.062;9.962;2023-03-22T09:31:35;12.00;99.90
6307;DHT22;3186;54.062;9.962;2023-03-22T09:34:24;12.00;99.90
6307;DHT22;3186;54.062;9.962;2023-03-22T09:36:50;12.10;99.90
6307;DHT22;3186;54.062;9.962;2023-03-22T09:39:23;12.20;99.90
6307;DHT22;3186;54.062;9.962;2023-03-22T09:41:58;12.20;99.90
6307;DHT22;3186;54.062;9.962;2023-03-22T09:44:40;12.20;99.90
6307;DHT22;3186;54.062;9.962;2023-03-22T09:47:16;12.40;99.90
6307;DHT22;3186;54.062;9.962;2023-03-22T09:49:47;12.50;99.90
6307;DHT22;3186;54.062;9.962;2023-03-22T09:52:16;12.60;99.90
6307;DHT22;3186;54.062;9.962;2023-03-22T09:54:44;12.80;99.90
6307;DHT22;3186;54.062;9.962;2023-03-22T09:57:31;12.70;99.90
6307;DHT22;3186;54.062;9.962;2023-03-22T10:05:41;11.30;99.90
6307;DHT22;3186;54.062;9.962;2023-03-22T10:11:58;12.70;99.90
6307;DHT22;3186;54.062;9.962;2023-03-22T10:16:32;12.70;99.90
6307;DHT22;3186;54.062;9.962;2023-03-22T10:22:18;13.00;99.90
6307;DHT22;3186;54.062;9.962;2023-03-22T10:24:50;13.30;99.90
6307;DHT22;3186;54.062;9.962;2023-03-22T10:27:19;13.30;99.90
6307;DHT22;3186;54.062;9.962;2023-03-22T10:29:52;13.30;99.90
6307;DHT22;3186;54.062;9.962;2023-03-22T10:33:02;13.50;99.90
6307;DHT22;3186;54.062;9.962;2023-03-22T10:35:31;13.40;99.90
6307;DHT22;3186;54.062;9.962;2023-03-22T10:37:59;13.20;99.90
6307;DHT22;3186;54.062;9.962;2023-03-22T10:40:29;13.20;99.90
6307;DHT22;3186;54.062;9.962;2023-03-22T10:43:03;13.20;99.90
6307;DHT22;3186;54.062;9.962;2023-03-22T10:45:32;13.20;99.90
6307;DHT22;3186;54.062;9.962;2023-03-22T10:48:28;13.30;99.90
6307;DHT22;3186;54.062;9.962;2023-03-22T10:50:58;13.30;99.90
6307;DHT22;3186;54.062;9.962;2023-03-22T10:53:48;13.20;99.90
6307;DHT22;3186;54.062;9.962;2023-03-22T10:56:17;13.30;99.90
6307;DHT22;3186;54.062;9.962;2023-03-22T10:58:45;13.50;99.90
6307;DHT22;3186;54.062;9.962;2023-03-22T11:01:14;13.40;99.90
6307;DHT22;3186;54.062;9.962;2023-03-22T11:03:43;13.20;99.90
6307;DHT22;3186;54.062;9.962;2023-03-22T11:06:27;13.30;99.90
6307;DHT22;3186;54.062;9.962;2023-03-22T11:08:59;13.40;99.90
6307;DHT22;3186;54.062;9.962;2023-03-22T11:13:59;13.40;99.90
6307;DHT22;3186;54.062;9.962;2023-03-22T11:16:27;13.40;99.90
6307;DHT22;3186;54.062;9.962;2023-03-22T11:18:54;13.40;99.90
6307;DHT22;3186;54.062;9.962;2023-03-22T11:21:27;13.30;99.90
6307;DHT22;3186;54.062;9.962;2023-03-22T11:24:02;13.40;99.90
6307;DHT22;3186;54.062;9.962;2023-03-22T11:26:34;13.50;99.90
6307;DHT22;3186;54.062;9.962;2023-03-22T11:29:16;13.40;99.90
6307;DHT22;3186;54.062;9.962;2023-03-22T11:31:56;13.50;99.90
6307;DHT22;3186;54.062;9.962;2023-03-22T11:34:32;13.40;99.90
6307;DHT22;3186;54.062;9.962;2023-03-22T11:37:01;13.50;99.90
6307;DHT22;3186;54.062;9.962;2023-03-22T11:39:32;13.70;99.90
6307;DHT22;3186;54.062;9.962;2023-03-22T11:42:03;13.60;99.90
6307;DHT22;3186;54.062;9.962;2023-03-22T11:44:33;13.60;99.90
6307;DHT22;3186;54.062;9.962;2023-03-22T11:47:01;13.80;99.90
6307;DHT22;3186;54.062;9.962;2023-03-22T11:49:37;14.00;99.90
6307;DHT22;3186;54.062;9.962;2023-03-22T11:52:24;13.80;99.90
6307;DHT22;3186;54.062;9.962;2023-03-22T11:54:52;14.00;99.90
6307;DHT22;3186;54.062;9.962;2023-03-22T11:57:21;13.80;99.90
6307;DHT22;3186;54.062;9.962;2023-03-22T12:00:04;13.80;99.90
6307;DHT22;3186;54.062;9.962;2023-03-22T12:02:40;13.60;99.90
6307;DHT22;3186;54.062;9.962;2023-03-22T12:07:45;13.90;99.90
6307;DHT22;3186;54.062;9.962;2023-03-22T12:10:16;13.90;99.90
6307;DHT22;3186;54.062;9.962;2023-03-22T12:13:27;13.90;99.90
6307;DHT22;3186;54.062;9.962;2023-03-22T12:15:57;14.00;99.90
6307;DHT22;3186;54.062;9.962;2023-03-22T12:18:37;13.90;99.90
6307;DHT22;3186;54.062;9.962;2023-03-22T12:21:08;13.80;99.90
6307;DHT22;3186;54.062;9.962;2023-03-22T12:23:34;13.70;99.90
6307;DHT22;3186;54.062;9.962;2023-03-22T12:26:04;13.80;99.90
6307;DHT22;3186;54.062;9.962;2023-03-22T12:29:14;13.80;99.90
6307;DHT22;3186;54.062;9.962;2023-03-22T12:34:37;13.90;99.90
6307;DHT22;3186;54.062;9.962;2023-03-22T12:37:07;14.00;99.90
6307;DHT22;3186;54.062;9.962;2023-03-22T12:39:45;14.00;99.90
6307;DHT22;3186;54.062;9.962;2023-03-22T12:42:23;13.90;99.90
6307;DHT22;3186;54.062;9.962;2023-03-22T12:44:56;13.90;99.90
6307;DHT22;3186;54.062;9.962;2023-03-22T12:47:37;13.90;99.90
6307;DHT22;3186;54.062;9.962;2023-03-22T12:52:56;13.60;99.90
6307;DHT22;3186;54.062;9.962;2023-03-22T12:57:51;13.60;99.90
6307;DHT22;3186;54.062;9.962;2023-03-22T13:00:25;13.50;99.90
6307;DHT22;3186;54.062;9.962;2023-03-22T13:03:01;13.50;99.90
6307;DHT22;3186;54.062;9.962;2023-03-22T13:05:29;13.50;99.90
6307;DHT22;3186;54.062;9.962;2023-03-22T13:07:56;13.60;99.90
6307;DHT22;3186;54.062;9.962;2023-03-22T13:16:16;13.30;99.90
6307;DHT22;3186;54.062;9.962;2023-03-22T13:21:24;13.40;99.90
6307;DHT22;3186;54.062;9.962;2023-03-22T13:24:19;13.40;99.90
6307;DHT22;3186;54.062;9.962;2023-03-22T13:26:51;13.30;99.90
6307;DHT22;3186;54.062;9.962;2023-03-22T13:29:34;13.40;99.90
6307;DHT22;3186;54.062;9.962;2023-03-22T13:32:06;13.40;99.90
6307;DHT22;3186;54.062;9.962;2023-03-22T13:34:47;13.30;99.90
6307;DHT22;3186;54.062;9.962;2023-03-22T13:40:00;13.10;99.90
6307;DHT22;3186;54.062;9.962;2023-03-22T13:42:35;13.10;99.90
6307;DHT22;3186;54.062;9.962;2023-03-22T13:45:07;13.10;99.90
6307;DHT22;3186;54.062;9.962;2023-03-22T13:47:37;13.10;99.90
6307;DHT22;3186;54.062;9.962;2023-03-22T13:50:12;13.00;99.90
6307;DHT22;3186;54.062;9.962;2023-03-22T13:52:44;12.90;99.90
6307;DHT22;3186;54.062;9.962;2023-03-22T13:58:03;12.90;99.90
6307;DHT22;3186;54.062;9.962;2023-03-22T14:00:37;12.80;99.90
6307;DHT22;3186;54.062;9.962;2023-03-22T14:03:16;12.80;99.90
6307;DHT22;3186;54.062;9.962;2023-03-22T14:05:45;12.80;99.90
6307;DHT22;3186;54.062;9.962;2023-03-22T14:08:20;12.80;99.90
6307;DHT22;3186;54.062;9.962;2023-03-22T14:14:08;12.70;99.90
6307;DHT22;3186;54.062;9.962;2023-03-22T14:16:43;12.60;99.90
6307;DHT22;3186;54.062;9.962;2023-03-22T14:19:17;12.50;99.90
6307;DHT22;3186;54.062;9.962;2023-03-22T14:21:49;12.50;99.90
6307;DHT22;3186;54.062;9.962;2023-03-22T14:24:17;12.50;99.90
6307;DHT22;3186;54.062;9.962;2023-03-22T14:26:48;12.60;99.90
6307;DHT22;3186;54.062;9.962;2023-03-22T14:29:18;12.60;99.90
6307;DHT22;3186;54.062;9.962;2023-03-22T14:31:52;12.50;99.90
6307;DHT22;3186;54.062;9.962;2023-03-22T14:34:19;12.40;99.90
6307;DHT22;3186;54.062;9.962;2023-03-22T14:36:47;12.40;99.90
6307;DHT22;3186;54.062;9.962;2023-03-22T14:39:21;12.40;99.90
6307;DHT22;3186;54.062;9.962;2023-03-22T14:42:04;12.30;99.90
6307;DHT22;3186;54.062;9.962;2023-03-22T14:44:45;12.30;99.90
6307;DHT22;3186;54.062;9.962;2023-03-22T14:49:42;12.30;99.90
6307;DHT22;3186;54.062;9.962;2023-03-22T14:52:26;12.30;99.90
6307;DHT22;3186;54.062;9.962;2023-03-22T14:54:55;12.40;99.90
6307;DHT22;3186;54.062;9.962;2023-03-22T14:57:47;12.30;99.90
6307;DHT22;3186;54.062;9.962;2023-03-22T15:00:16;12.30;99.90
6307;DHT22;3186;54.062;9.962;2023-03-22T15:02:55;12.30;99.90
6307;DHT22;3186;54.062;9.962;2023-03-22T15:05:24;12.30;99.90
6307;DHT22;3186;54.062;9.962;2023-03-22T15:07:52;12.10;99.90
6307;DHT22;3186;54.062;9.962;2023-03-22T15:10:23;12.10;99.90
6307;DHT22;3186;54.062;9.962;2023-03-22T15:12:52;12.10;99.90
6307;DHT22;3186;54.062;9.962;2023-03-22T15:15:21;12.10;99.90
6307;DHT22;3186;54.062;9.962;2023-03-22T15:17:47;12.20;99.90
6307;DHT22;3186;54.062;9.962;2023-03-22T15:20:17;12.10;99.90
6307;DHT22;3186;54.062;9.962;2023-03-22T15:22:52;12.20;99.90
6307;DHT22;3186;54.062;9.962;2023-03-22T15:25:18;12.20;99.90
6307;DHT22;3186;54.062;9.962;2023-03-22T15:27:44;12.20;99.90
6307;DHT22;3186;54.062;9.962;2023-03-22T15:30:11;12.10;99.90
6307;DHT22;3186;54.062;9.962;2023-03-22T15:32:41;12.00;99.90
6307;DHT22;3186;54.062;9.962;2023-03-22T15:35:11;12.00;99.90
6307;DHT22;3186;54.062;9.962;2023-03-22T15:37:37;12.00;99.90
6307;DHT22;3186;54.062;9.962;2023-03-22T15:40:04;12.00;99.90
6307;DHT22;3186;54.062;9.962;2023-03-22T15:42:33;12.00;99.90
6307;DHT22;3186;54.062;9.962;2023-03-22T15:45:11;12.00;99.90
6307;DHT22;3186;54.062;9.962;2023-03-22T15:50:11;12.00;99.90
6307;DHT22;3186;54.062;9.962;2023-03-22T15:52:52;12.10;99.90
6307;DHT22;3186;54.062;9.962;2023-03-22T15:55:19;12.00;99.90
6307;DHT22;3186;54.062;9.962;2023-03-22T15:58:02;11.90;99.90
6307;DHT22;3186;54.062;9.962;2023-03-22T16:00:34;11.90;99.90
6307;DHT22;3186;54.062;9.962;2023-03-22T16:05:35;11.90;99.90
6307;DHT22;3186;54.062;9.962;2023-03-22T16:08:02;11.80;99.90
6307;DHT22;3186;54.062;9.962;2023-03-22T16:10:31;11.70;99.90
6307;DHT22;3186;54.062;9.962;2023-03-22T16:12:58;11.90;99.90
6307;DHT22;3186;54.062;9.962;2023-03-22T16:15:32;11.80;99.90
6307;DHT22;3186;54.062;9.962;2023-03-22T16:17:58;11.80;99.90
6307;DHT22;3186;54.062;9.962;2023-03-22T16:20:26;11.70;99.90
6307;DHT22;3186;54.062;9.962;2023-03-22T16:23:00;11.70;99.90
6307;DHT22;3186;54.062;9.962;2023-03-22T16:25:26;11.70;99.90
6307;DHT22;3186;54.062;9.962;2023-03-22T16:27:52;11.70;99.90
6307;DHT22;3186;54.062;9.962;2023-03-22T16:30:18;11.60;99.90
6307;DHT22;3186;54.062;9.962;2023-03-22T16:32:45;11.60;99.90
6307;DHT22;3186;54.062;9.962;2023-03-22T16:35:18;13.00;99.90
6307;DHT22;3186;54.062;9.962;2023-03-22T16:37:45;11.60;99.90
6307;DHT22;3186;54.062;9.962;2023-03-22T16:40:22;11.50;99.90
6307;DHT22;3186;54.062;9.962;2023-03-22T16:42:51;11.50;99.90
6307;DHT22;3186;54.062;9.962;2023-03-22T16:47:49;11.60;99.90
6307;DHT22;3186;54.062;9.962;2023-03-22T16:50:16;11.50;99.90
6307;DHT22;3186;54.062;9.962;2023-03-22T16:52:42;11.50;99.90
6307;DHT22;3186;54.062;9.962;2023-03-22T16:55:29;11.40;99.90
6307;DHT22;3186;54.062;9.962;2023-03-22T16:57:55;11.50;99.90
6307;DHT22;3186;54.062;9.962;2023-03-22T17:00:22;11.40;99.90
6307;DHT22;3186;54.062;9.962;2023-03-22T17:02:55;11.40;99.90
6307;DHT22;3186;54.062;9.962;2023-03-22T17:05:23;11.40;99.90
6307;DHT22;3186;54.062;9.962;2023-03-22T17:07:51;11.40;99.90
6307;DHT22;3186;54.062;9.962;2023-03-22T17:10:18;11.40;99.90
6307;DHT22;3186;54.062;9.962;2023-03-22T17:12:44;11.40;99.90
6307;DHT22;3186;54.062;9.962;2023-03-22T17:15:31;11.40;99.90
6307;DHT22;3186;54.062;9.962;2023-03-22T17:17:58;11.50;99.90
6307;DHT22;3186;54.062;9.962;2023-03-22T17:20:25;11.40;99.90
6307;DHT22;3186;54.062;9.962;2023-03-22T17:22:53;11.40;99.90
6307;DHT22;3186;54.062;9.962;2023-03-22T17:25:22;11.40;99.90
6307;DHT22;3186;54.062;9.962;2023-03-22T17:27:49;11.30;99.90
6307;DHT22;3186;54.062;9.962;2023-03-22T17:30:15;11.40;99.90
6307;DHT22;3186;54.062;9.962;2023-03-22T17:32:41;11.40;99.90
6307;DHT22;3186;54.062;9.962;2023-03-22T17:35:10;11.50;99.90
6307;DHT22;3186;54.062;9.962;2023-03-22T17:37:36;11.40;99.90
6307;DHT22;3186;54.062;9.962;2023-03-22T17:40:02;11.40;99.90
6307;DHT22;3186;54.062;9.962;2023-03-22T17:42:28;11.40;99.90
6307;DHT22;3186;54.062;9.962;2023-03-22T17:44:54;11.30;99.90
6307;DHT22;3186;54.062;9.962;2023-03-22T17:47:20;11.30;99.90
6307;DHT22;3186;54.062;9.962;2023-03-22T17:49:45;11.30;99.90
6307;DHT22;3186;54.062;9.962;2023-03-22T17:52:15;11.30;99.90
6307;DHT22;3186;54.062;9.962;2023-03-22T17:54:41;11.30;99.90
6307;DHT22;3186;54.062;9.962;2023-03-22T17:57:07;11.30;99.90
6307;DHT22;3186;54.062;9.962;2023-03-22T17:59:32;11.30;99.90
6307;DHT22;3186;54.062;9.962;2023-03-22T18:02:00;11.30;99.90
6307;DHT22;3186;54.062;9.962;2023-03-22T18:04:27;11.30;99.90
6307;DHT22;3186;54.062;9.962;2023-03-22T18:06:53;11.30;99.90
6307;DHT22;3186;54.062;9.962;2023-03-22T18:09:19;11.20;99.90
6307;DHT22;3186;54.062;9.962;2023-03-22T18:11:46;11.30;99.90
6307;DHT22;3186;54.062;9.962;2023-03-22T18:14:12;11.30;99.90